Time;durP1;ratioP1;P1;durP2;ratioP2;P2;SDS_P1;SDS_P2;PMS_P1;PMS_P2;Temp;Humidity;BMP_temperature;BMP_pressure;BME280_temperature;BME280_humidity;BME280_pressure;Samples;Min_cycle;Max_cycle;Signal;HPM_P1;HPM_P2
2022/09/25 00:01:13;;;;;;;;;;;;;;;12.61;87.74;97637.53;4976351;28;19937;-86
2022/09/25 00:03:44;;;;;;;;;;;;;;;12.64;87.80;97626.00;4974273;28;20009;-85
2022/09/25 00:06:12;;;;;;;;;;;;;;;12.65;87.27;97627.59;4974373;28;20030;-87
2022/09/25 00:08:41;;;;;;;;;;;;;;;12.65;87.24;97622.94;4989811;28;19977;-85
2022/09/25 00:11:10;;;;;;;;;;;;;;;12.68;86.83;97627.72;4987829;28;19930;-85
2022/09/25 00:13:39;;;;;;;;;;;;;;;12.68;86.75;97633.19;4975427;28;20387;-86
2022/09/25 00:16:09;;;;;;;;;;;;;;;12.68;86.74;97624.22;4992768;28;19930;-85
2022/09/25 00:21:28;;;;;;;;;;;;;;;12.63;86.78;97627.13;4973773;28;19976;-85
2022/09/25 00:23:56;;;;;;;;;;;;;;;12.62;86.66;97620.06;4976248;28;19969;-84
2022/09/25 00:26:26;;;;;;;;;;;;;;;12.61;86.78;97624.72;4973909;28;20051;-85
2022/09/25 00:28:54;;;;;;;;;;;;;;;12.61;86.74;97624.72;4975989;28;19933;-86
2022/09/25 00:31:23;;;;;;;;;;;;;;;12.52;87.30;97632.97;4973590;28;19926;-85
2022/09/25 00:33:52;;;;;;;;;;;;;;;12.46;87.55;97626.09;4990669;28;19925;-86
2022/09/25 00:39:17;;;;;;;;;;;;;;;12.37;88.51;97627.28;4973473;28;19988;-87
2022/09/25 00:41:45;;;;;;;;;;;;;;;12.43;88.31;97629.50;4975565;28;19933;-86
2022/09/25 00:44:32;;;;;;;;;;;;;;;12.26;88.81;97624.16;4989259;28;19930;-86
2022/09/25 00:47:00;;;;;;;;;;;;;;;12.35;88.66;97624.09;4975953;28;20288;-86
2022/09/25 00:49:30;;;;;;;;;;;;;;;12.40;88.13;97618.44;4973019;28;19926;-85
2022/09/25 00:52:05;;;;;;;;;;;;;;;12.37;88.09;97611.75;4989966;28;19945;-86
2022/09/25 00:54:58;;;;;;;;;;;;;;;12.41;87.91;97618.13;4975618;28;20295;-85
2022/09/25 01:00:50;;;;;;;;;;;;;;;12.40;87.60;97607.53;4976999;28;19930;-85
2022/09/25 01:03:18;;;;;;;;;;;;;;;12.42;87.82;97616.19;4965596;28;20087;-85
2022/09/25 01:06:12;;;;;;;;;;;;;;;12.42;87.87;97616.19;4969410;28;19926;-86
2022/09/25 01:08:44;;;;;;;;;;;;;;;12.41;87.86;97609.97;4977353;28;19937;-85
2022/09/25 01:11:12;;;;;;;;;;;;;;;12.39;87.77;97609.47;4972956;28;19941;-86
2022/09/25 01:13:41;;;;;;;;;;;;;;;12.41;87.65;97612.69;4971702;28;19926;-86
2022/09/25 01:16:12;;;;;;;;;;;;;;;12.14;88.60;97607.69;4974784;28;19934;-85
2022/09/25 01:18:50;;;;;;;;;;;;;;;12.22;88.17;97604.13;4974582;28;20061;-85
2022/09/25 01:24:47;;;;;;;;;;;;;;;12.21;87.83;97592.44;4986870;28;20009;-85
2022/09/25 01:27:27;;;;;;;;;;;;;;;12.26;87.80;97594.97;4936442;29;19927;-85
2022/09/25 01:30:00;;;;;;;;;;;;;;;12.25;87.70;97592.56;4964298;28;19933;-85
2022/09/25 01:32:28;;;;;;;;;;;;;;;12.24;87.70;97590.97;4968811;28;20060;-86
2022/09/25 01:34:58;;;;;;;;;;;;;;;12.19;87.48;97589.25;4969769;28;19934;-85
2022/09/25 01:37:28;;;;;;;;;;;;;;;12.23;87.45;97590.19;4970247;28;19927;-86
2022/09/25 01:39:58;;;;;;;;;;;;;;;12.20;87.36;97587.34;4972235;28;19933;-86
2022/09/25 01:42:26;;;;;;;;;;;;;;;12.20;87.31;97585.41;4972730;28;20299;-84
2022/09/25 01:44:56;;;;;;;;;;;;;;;12.25;87.08;97578.94;4972835;28;20308;-86
2022/09/25 01:47:52;;;;;;;;;;;;;;;12.17;87.24;97583.34;4973841;28;19993;-86
2022/09/25 01:50:24;;;;;;;;;;;;;;;12.13;87.27;97584.31;4965630;28;19927;-87
2022/09/25 01:52:53;;;;;;;;;;;;;;;12.14;87.26;97581.25;4971341;28;19926;-86
2022/09/25 01:55:46;;;;;;;;;;;;;;;12.16;87.24;97586.41;4971979;28;20365;-87
2022/09/25 01:58:15;;;;;;;;;;;;;;;12.18;86.96;97584.13;4990294;28;19965;-86
2022/09/25 02:00:49;;;;;;;;;;;;;;;12.18;86.65;97587.66;4973116;28;19927;-86
2022/09/25 02:03:20;;;;;;;;;;;;;;;12.19;86.65;97586.50;4995176;28;20026;-86
2022/09/25 02:06:16;;;;;;;;;;;;;;;12.19;86.88;97583.78;4982842;28;20017;-85
2022/09/25 02:08:45;;;;;;;;;;;;;;;12.17;86.85;97580.59;4974887;28;20017;-87
2022/09/25 02:11:13;;;;;;;;;;;;;;;12.07;87.48;97572.81;4972167;28;19927;-85
2022/09/25 02:13:42;;;;;;;;;;;;;;;12.10;87.15;97574.09;4987874;28;20067;-86
2022/09/25 02:16:18;;;;;;;;;;;;;;;12.15;87.18;97573.91;4975235;28;20010;-87
2022/09/25 02:21:35;;;;;;;;;;;;;;;12.10;87.00;97574.91;4970618;28;20009;-85
2022/09/25 02:24:05;;;;;;;;;;;;;;;12.00;87.29;97567.91;4970036;28;19930;-86
2022/09/25 02:26:33;;;;;;;;;;;;;;;12.03;87.37;97569.94;4972201;28;19977;-87
2022/09/25 02:29:02;;;;;;;;;;;;;;;12.05;87.13;97569.63;4973002;28;19926;-86
2022/09/25 02:31:34;;;;;;;;;;;;;;;12.05;86.88;97566.91;4975638;28;19926;-87
2022/09/25 02:34:03;;;;;;;;;;;;;;;12.00;87.28;97564.38;4976818;28;19926;-86
2022/09/25 02:36:32;;;;;;;;;;;;;;;12.02;87.18;97568.34;4981498;28;19926;-87
2022/09/25 02:39:02;;;;;;;;;;;;;;;11.96;87.41;97571.59;4976567;28;19927;-85
2022/09/25 02:42:01;;;;;;;;;;;;;;;11.99;87.39;97574.47;4975926;28;19994;-86
2022/09/25 02:44:32;;;;;;;;;;;;;;;11.99;87.29;97571.75;4976824;28;19968;-86
2022/09/25 02:47:03;;;;;;;;;;;;;;;12.00;87.22;97580.72;4975611;28;19926;-86
2022/09/25 02:49:39;;;;;;;;;;;;;;;12.02;87.29;97578.44;4971933;28;19926;-87
2022/09/25 02:52:09;;;;;;;;;;;;;;;12.02;87.35;97579.25;4976299;28;19973;-87
2022/09/25 02:55:05;;;;;;;;;;;;;;;12.04;87.24;97587.91;4972245;28;20296;-86
2022/09/25 02:58:01;;;;;;;;;;;;;;;12.01;86.84;97585.81;4985249;28;19990;-87
2022/09/25 03:00:29;;;;;;;;;;;;;;;12.00;87.21;97583.44;4977076;28;20017;-86
2022/09/25 03:02:58;;;;;;;;;;;;;;;12.00;87.04;97584.22;4973074;28;19934;-86
2022/09/25 03:05:26;;;;;;;;;;;;;;;11.93;87.14;97583.97;4973778;28;19926;-86
2022/09/25 03:10:45;;;;;;;;;;;;;;;11.76;87.30;97583.97;4968095;28;19945;-86
2022/09/25 03:13:14;;;;;;;;;;;;;;;11.81;87.08;97575.63;4990083;28;19934;-87
2022/09/25 03:15:43;;;;;;;;;;;;;;;11.79;87.14;97575.19;4974853;28;20388;-85
2022/09/25 03:18:37;;;;;;;;;;;;;;;11.84;87.12;97572.31;4973451;28;20028;-85
2022/09/25 03:21:05;;;;;;;;;;;;;;;11.86;87.06;97575.47;4989283;28;20032;-84
2022/09/25 03:23:35;;;;;;;;;;;;;;;11.88;86.93;97575.16;4973933;28;19930;-86
2022/09/25 03:26:04;;;;;;;;;;;;;;;11.86;87.02;97586.38;4972701;28;19950;-86
2022/09/25 03:28:33;;;;;;;;;;;;;;;11.87;86.88;97587.97;4974803;28;19926;-86
2022/09/25 03:31:01;;;;;;;;;;;;;;;11.86;86.68;97580.94;4970546;28;19985;-84
2022/09/25 03:33:30;;;;;;;;;;;;;;;11.86;86.91;97586.38;4971779;28;20284;-86
2022/09/25 03:36:02;;;;;;;;;;;;;;;11.85;87.05;97584.00;4979961;28;20277;-85
2022/09/25 03:38:34;;;;;;;;;;;;;;;11.82;86.97;97585.41;4969261;28;20018;-86
2022/09/25 03:41:07;;;;;;;;;;;;;;;11.80;87.00;97585.72;4985673;28;20032;-87
2022/09/25 03:43:36;;;;;;;;;;;;;;;11.80;86.94;97580.28;4987650;28;20337;-85
2022/09/25 03:46:06;;;;;;;;;;;;;;;11.85;86.75;97582.06;4975573;28;19926;-86
2022/09/25 03:48:34;;;;;;;;;;;;;;;11.89;86.70;97580.28;4972341;28;20337;-85
2022/09/25 03:51:03;;;;;;;;;;;;;;;11.88;86.63;97581.41;4988411;28;19933;-86
2022/09/25 03:53:33;;;;;;;;;;;;;;;11.89;86.54;97574.84;4975392;28;19926;-86
2022/09/25 03:56:01;;;;;;;;;;;;;;;11.88;86.64;97575.97;4975775;28;20292;-85
2022/09/25 03:58:30;;;;;;;;;;;;;;;11.78;86.80;97568.94;4970654;28;19974;-85
2022/09/25 04:01:00;;;;;;;;;;;;;;;11.80;86.80;97569.41;4987661;28;19977;-86
2022/09/25 04:03:54;;;;;;;;;;;;;;;11.73;86.71;97574.56;4969832;28;20499;-86
2022/09/25 04:06:23;;;;;;;;;;;;;;;11.62;86.62;97572.53;4972824;28;20424;-85
2022/09/25 04:08:51;;;;;;;;;;;;;;;11.65;87.08;97569.16;4975476;28;20372;-85
2022/09/25 04:11:22;;;;;;;;;;;;;;;11.58;87.41;97568.88;4972926;28;19926;-86
2022/09/25 04:13:52;;;;;;;;;;;;;;;11.72;86.90;97564.00;4973708;28;20357;-84
2022/09/25 04:16:22;;;;;;;;;;;;;;;11.54;87.59;97558.63;4970914;28;19985;-85
2022/09/25 04:18:50;;;;;;;;;;;;;;;11.56;87.43;97555.59;4977129;28;20257;-87
2022/09/25 04:21:17;;;;;;;;;;;;;;;11.67;87.17;97553.31;4991296;28;19973;-85
2022/09/25 04:24:47;;;;;;;;;;;;;;;11.71;86.66;97555.03;4993413;28;20458;-86
2022/09/25 04:26:34;;;;;;;;;;;;;;;11.73;86.57;97557.44;4974898;28;20289;-86
2022/09/25 04:29:04;;;;;;;;;;;;;;;11.73;86.48;97557.44;4974395;28;19932;-87
2022/09/25 04:34:45;;;;;;;;;;;;;;;11.63;87.12;97553.16;4966722;28;19938;-86
2022/09/25 04:37:14;;;;;;;;;;;;;;;11.58;87.32;97552.53;4972744;28;19933;-86
2022/09/25 04:39:43;;;;;;;;;;;;;;;11.63;87.10;97555.09;4971447;28;19926;-86
2022/09/25 04:42:12;;;;;;;;;;;;;;;11.51;87.32;97559.28;4973263;28;19961;-87
2022/09/25 04:44:41;;;;;;;;;;;;;;;11.55;87.63;97554.78;4969458;28;20020;-87
2022/09/25 04:47:09;;;;;;;;;;;;;;;11.51;87.63;97553.84;4973387;28;20021;-86
2022/09/25 04:49:38;;;;;;;;;;;;;;;11.63;87.30;97558.59;4972184;28;19965;-86
2022/09/25 04:55:03;;;;;;;;;;;;;;;11.68;87.00;97560.34;4972322;28;20155;-82
2022/09/25 04:57:57;;;;;;;;;;;;;;;11.71;87.41;97565.13;4969565;28;19926;-82
2022/09/25 05:04:46;;;;;;;;;;;;;;;11.43;87.24;97559.31;4966292;28;19934;-83
2022/09/25 05:14:45;;;;;;;;;;;;;;;11.57;87.11;97562.63;4936270;29;19934;-76
2022/09/25 05:20:18;;;;;;;;;;;;;;;11.68;86.94;97563.06;4932318;29;19937;-80
2022/09/25 05:22:46;;;;;;;;;;;;;;;11.70;86.77;97558.88;4949169;28;19927;-86
2022/09/25 05:25:14;;;;;;;;;;;;;;;11.74;86.68;97556.31;4948625;28;19933;-84
2022/09/25 05:27:43;;;;;;;;;;;;;;;11.77;86.27;97545.56;4935579;29;19927;-84
2022/09/25 05:30:11;;;;;;;;;;;;;;;11.79;86.31;97553.41;4937886;29;19926;-77
2022/09/25 05:32:39;;;;;;;;;;;;;;;11.65;86.54;97545.44;4949053;28;20037;-80
2022/09/25 05:35:10;;;;;;;;;;;;;;;11.64;86.65;97554.75;4918591;29;20083;-82
2022/09/25 05:37:40;;;;;;;;;;;;;;;11.70;86.70;97542.56;4935709;29;19927;-84
2022/09/25 05:40:09;;;;;;;;;;;;;;;11.71;86.47;97552.31;4931324;29;19938;-80
2022/09/25 05:42:42;;;;;;;;;;;;;;;11.70;86.73;97550.72;4935088;29;19926;-79
2022/09/25 05:45:11;;;;;;;;;;;;;;;11.71;86.78;97557.75;4949237;28;19926;-79
2022/09/25 05:48:04;;;;;;;;;;;;;;;11.62;87.05;97558.94;4969912;28;19930;-82
2022/09/25 05:50:32;;;;;;;;;;;;;;;11.51;87.19;97556.56;4986503;28;20246;-83
2022/09/25 05:53:03;;;;;;;;;;;;;;;11.66;86.95;97549.75;4971070;28;20411;-95
2022/09/25 05:55:34;;;;;;;;;;;;;;;11.66;86.88;97555.22;4973344;28;19985;-79
2022/09/25 05:58:02;;;;;;;;;;;;;;;11.54;86.96;97558.63;4949791;28;20306;-79
2022/09/25 06:00:31;;;;;;;;;;;;;;;11.63;86.72;97560.53;4951604;28;20028;-81
2022/09/25 06:03:24;;;;;;;;;;;;;;;11.66;86.96;97554.41;4964220;28;19989;-79
2022/09/25 06:05:55;;;;;;;;;;;;;;;11.65;86.79;97555.53;4960521;28;19933;-87
2022/09/25 06:08:25;;;;;;;;;;;;;;;11.63;86.46;97555.88;4947627;28;19930;-88
2022/09/25 06:10:54;;;;;;;;;;;;;;;11.66;87.19;97560.66;4954841;28;20289;-76
2022/09/25 06:13:24;;;;;;;;;;;;;;;11.69;86.78;97559.22;4963605;28;20365;-90
2022/09/25 06:15:53;;;;;;;;;;;;;;;11.70;86.99;97566.25;4962787;28;20377;-80
2022/09/25 06:18:21;;;;;;;;;;;;;;;11.72;86.60;97558.56;4950836;28;19962;-85
2022/09/25 06:20:50;;;;;;;;;;;;;;;11.77;86.79;97561.91;4951290;28;19934;-87
2022/09/25 06:23:18;;;;;;;;;;;;;;;11.80;86.75;97565.88;4951523;28;19978;-86
2022/09/25 06:25:49;;;;;;;;;;;;;;;11.82;86.99;97569.09;4951605;28;20151;-82
2022/09/25 06:28:17;;;;;;;;;;;;;;;11.78;87.06;97563.50;4955781;28;19934;-86
2022/09/25 06:30:46;;;;;;;;;;;;;;;11.84;86.85;97555.97;4954248;28;19926;-87
2022/09/25 06:33:14;;;;;;;;;;;;;;;11.87;86.68;97558.03;4957481;28;19946;-87
2022/09/25 06:35:43;;;;;;;;;;;;;;;11.78;87.13;97551.81;4973032;28;19938;-85
2022/09/25 06:38:11;;;;;;;;;;;;;;;11.82;87.52;97552.75;4969909;28;19927;-86
2022/09/25 06:40:39;;;;;;;;;;;;;;;11.89;87.16;97561.22;4969221;28;19930;-89
2022/09/25 06:43:11;;;;;;;;;;;;;;;11.90;87.19;97562.81;4957567;28;19998;-90
2022/09/25 06:45:40;;;;;;;;;;;;;;;11.92;87.33;97570.66;4969807;28;19950;-93
2022/09/25 06:48:10;;;;;;;;;;;;;;;11.95;87.29;97570.81;4954102;28;19946;-81
2022/09/25 06:50:40;;;;;;;;;;;;;;;11.95;87.00;97568.09;4961158;28;20422;-89
2022/09/25 06:53:08;;;;;;;;;;;;;;;11.96;87.18;97564.22;4947368;28;19927;-80
2022/09/25 06:55:36;;;;;;;;;;;;;;;12.00;87.30;97567.91;4966833;28;19927;-83
2022/09/25 06:58:09;;;;;;;;;;;;;;;12.07;87.08;97559.22;4977782;28;20112;-79
2022/09/25 07:04:00;;;;;;;;;;;;;;;12.16;86.91;97572.78;4991062;28;19988;-90
2022/09/25 07:06:30;;;;;;;;;;;;;;;12.22;86.97;97566.00;4979673;28;19926;-90
2022/09/25 07:09:02;;;;;;;;;;;;;;;12.29;86.88;97560.81;4966497;28;19965;-88
2022/09/25 07:11:31;;;;;;;;;;;;;;;12.35;86.90;97566.88;4973153;28;19926;-89
2022/09/25 07:14:03;;;;;;;;;;;;;;;12.37;86.96;97573.59;4977335;28;19926;-90
2022/09/25 07:16:33;;;;;;;;;;;;;;;12.40;86.85;97575.66;4975339;28;19926;-90
2022/09/25 07:19:03;;;;;;;;;;;;;;;12.42;87.10;97576.13;4978623;28;20364;-89
2022/09/25 07:21:34;;;;;;;;;;;;;;;12.48;87.18;97572.09;4986435;28;19992;-80
2022/09/25 07:24:05;;;;;;;;;;;;;;;12.54;87.05;97569.94;4971006;28;21774;-83
2022/09/25 07:26:34;;;;;;;;;;;;;;;12.61;86.84;97572.94;4982986;28;20044;-81
2022/09/25 07:29:09;;;;;;;;;;;;;;;12.69;86.78;97576.75;4974669;28;19930;-90
2022/09/25 07:31:38;;;;;;;;;;;;;;;12.77;86.45;97575.84;4973843;28;20445;-77
2022/09/25 07:34:11;;;;;;;;;;;;;;;12.74;86.65;97576.53;4985503;28;20288;-79
2022/09/25 07:36:46;;;;;;;;;;;;;;;12.78;86.78;97566.53;4970221;28;21295;-78
2022/09/25 07:39:40;;;;;;;;;;;;;;;12.85;86.78;97572.28;4989271;28;20012;-78
2022/09/25 07:42:09;;;;;;;;;;;;;;;12.96;86.45;97565.28;4980623;28;20403;-91
2022/09/25 07:44:38;;;;;;;;;;;;;;;13.03;85.95;97565.50;4971651;28;19934;-83
2022/09/25 07:47:14;;;;;;;;;;;;;;;13.13;85.78;97567.03;4971854;28;20332;-80
2022/09/25 07:49:42;;;;;;;;;;;;;;;13.20;85.81;97563.75;4989476;28;19926;-83
2022/09/25 07:52:35;;;;;;;;;;;;;;;13.27;85.33;97566.78;4972415;28;19934;-81
2022/09/25 07:55:03;;;;;;;;;;;;;;;13.34;84.90;97567.00;4982414;28;19934;-80
2022/09/25 07:57:57;;;;;;;;;;;;;;;13.34;84.10;97564.28;4989768;28;20257;-81
2022/09/25 08:00:25;;;;;;;;;;;;;;;13.43;83.73;97566.94;4979256;28;19988;-81
2022/09/25 08:02:57;;;;;;;;;;;;;;;13.39;83.96;97558.59;4968155;28;19927;-80
2022/09/25 08:05:26;;;;;;;;;;;;;;;13.37;83.78;97563.63;4971639;28;19925;-81
2022/09/25 08:07:55;;;;;;;;;;;;;;;13.27;83.31;97561.31;4984996;28;19948;-81
2022/09/25 08:10:48;;;;;;;;;;;;;;;13.33;83.59;97560.75;4974198;28;19992;-79
2022/09/25 08:13:19;;;;;;;;;;;;;;;13.49;83.17;97569.09;4971001;28;19926;-83
2022/09/25 08:15:50;;;;;;;;;;;;;;;13.53;83.40;97569.19;4974373;28;19933;-80
2022/09/25 08:18:20;;;;;;;;;;;;;;;13.47;82.96;97568.63;4986316;28;19926;-81
2022/09/25 08:20:49;;;;;;;;;;;;;;;13.48;83.26;97572.97;4971666;28;19942;-83
2022/09/25 08:23:17;;;;;;;;;;;;;;;13.50;83.03;97576.13;4985029;28;19926;-83
2022/09/25 08:25:47;;;;;;;;;;;;;;;13.48;83.20;97578.41;4990049;28;19932;-81
2022/09/25 08:28:16;;;;;;;;;;;;;;;13.33;83.30;97570.88;4973280;28;20446;-80
2022/09/25 08:30:44;;;;;;;;;;;;;;;13.32;83.01;97572.03;4985087;28;19925;-82
2022/09/25 08:33:13;;;;;;;;;;;;;;;13.20;83.29;97569.19;4977681;28;19925;-83
2022/09/25 08:35:44;;;;;;;;;;;;;;;13.13;83.85;97572.47;4974150;28;20379;-81
2022/09/25 08:38:13;;;;;;;;;;;;;;;13.19;83.40;97576.59;4976285;28;19926;-82
2022/09/25 08:40:53;;;;;;;;;;;;;;;13.26;83.70;97568.72;4973034;28;19961;-80
2022/09/25 08:43:27;;;;;;;;;;;;;;;13.36;83.40;97565.53;4989726;28;20288;-82
2022/09/25 08:49:03;;;;;;;;;;;;;;;13.49;83.25;97557.38;4998479;28;20020;-79
2022/09/25 08:51:34;;;;;;;;;;;;;;;13.40;82.51;97560.19;4996251;28;20332;-80
2022/09/25 08:54:05;;;;;;;;;;;;;;;13.45;82.95;97556.47;4990090;28;19962;-94
2022/09/25 08:57:26;;;;;;;;;;;;;;;13.56;82.14;97552.16;4986069;28;19933;-94
2022/09/25 09:00:22;;;;;;;;;;;;;;;13.76;81.95;97555.94;4991439;28;19936;-94
2022/09/25 09:02:52;;;;;;;;;;;;;;;13.78;81.31;97562.63;4979340;28;20299;-93
2022/09/25 09:05:21;;;;;;;;;;;;;;;13.71;81.45;97559.69;4976884;28;19988;-93
2022/09/25 09:07:52;;;;;;;;;;;;;;;13.78;81.35;97561.84;4973189;28;19925;-94
2022/09/25 09:10:27;;;;;;;;;;;;;;;13.75;81.62;97560.59;4991593;28;19948;-94
2022/09/25 09:12:56;;;;;;;;;;;;;;;13.71;81.52;97554.22;4984833;28;19969;-93
2022/09/25 09:15:27;;;;;;;;;;;;;;;13.69;82.08;97556.50;4985083;28;20011;-93
2022/09/25 09:17:55;;;;;;;;;;;;;;;13.71;81.93;97553.44;4969631;28;19929;-88
2022/09/25 09:20:31;;;;;;;;;;;;;;;13.69;82.10;97552.94;4992514;28;20001;-93
2022/09/25 09:23:01;;;;;;;;;;;;;;;13.72;82.23;97550.34;4991650;28;20451;-94
2022/09/25 09:26:10;;;;;;;;;;;;;;;13.75;81.90;97548.88;4986466;28;19926;-91
2022/09/25 09:28:51;;;;;;;;;;;;;;;13.80;81.52;97552.19;4977359;28;19936;-92
2022/09/25 09:31:20;;;;;;;;;;;;;;;13.78;81.24;97550.91;4972046;28;19937;-92
2022/09/25 09:33:50;;;;;;;;;;;;;;;13.80;81.19;97548.66;4987075;28;19989;-93
2022/09/25 09:36:19;;;;;;;;;;;;;;;13.83;81.49;97547.97;4971964;28;19930;-92
2022/09/25 09:38:51;;;;;;;;;;;;;;;13.94;80.70;97548.31;4972791;28;19926;-93
2022/09/25 09:41:22;;;;;;;;;;;;;;;13.95;80.31;97552.63;4985413;28;19926;-93
2022/09/25 09:43:57;;;;;;;;;;;;;;;13.84;81.19;97552.28;4979651;28;19932;-92
2022/09/25 09:46:27;;;;;;;;;;;;;;;13.74;80.82;97550.00;4994321;28;20035;-92
2022/09/25 09:49:00;;;;;;;;;;;;;;;13.91;80.90;97547.06;4981710;28;19926;-93
2022/09/25 09:51:31;;;;;;;;;;;;;;;14.02;81.00;97547.41;4993982;28;20403;-92
2022/09/25 09:54:03;;;;;;;;;;;;;;;14.11;80.04;97543.41;4980154;28;20029;-92
2022/09/25 10:07:51;;;;;;;;;;;;;;;13.98;79.33;97525.44;4984812;28;20325;-91
2022/09/25 10:10:22;;;;;;;;;;;;;;;14.15;79.01;97519.72;4977686;28;19972;-90
2022/09/25 10:12:51;;;;;;;;;;;;;;;14.29;79.49;97513.09;4989554;28;19932;-93
2022/09/25 10:15:24;;;;;;;;;;;;;;;14.51;78.69;97509.88;4977433;28;19933;-93
2022/09/25 10:17:56;;;;;;;;;;;;;;;14.66;77.51;97503.69;4990546;28;20067;-93
2022/09/25 10:20:29;;;;;;;;;;;;;;;14.77;76.80;97503.19;4992060;28;20447;-90
2022/09/25 10:23:05;;;;;;;;;;;;;;;14.80;77.12;97505.22;5003760;28;19977;-94
2022/09/25 10:25:38;;;;;;;;;;;;;;;14.86;76.68;97501.06;4999978;28;19933;-92
2022/09/25 10:28:45;;;;;;;;;;;;;;;14.88;75.81;97505.06;4994679;28;20024;-94
2022/09/25 10:31:14;;;;;;;;;;;;;;;15.00;75.40;97509.66;4993535;28;20405;-93
2022/09/25 10:34:16;;;;;;;;;;;;;;;15.26;75.41;97511.13;4979580;28;19926;-81
2022/09/25 10:36:45;;;;;;;;;;;;;;;15.31;74.42;97503.47;4988029;28;19945;-83
2022/09/25 10:39:26;;;;;;;;;;;;;;;15.15;73.21;97500.69;4973953;28;20400;-81
2022/09/25 10:42:25;;;;;;;;;;;;;;;15.19;72.69;97496.13;4989885;28;19933;-83
2022/09/25 10:44:56;;;;;;;;;;;;;;;15.17;72.79;97497.59;4977444;28;19933;-80
2022/09/25 10:50:41;;;;;;;;;;;;;;;15.42;72.01;97498.25;4994058;28;20072;-83
2022/09/25 10:53:25;;;;;;;;;;;;;;;15.44;72.66;97495.94;4973336;28;19930;-82
2022/09/25 10:55:56;;;;;;;;;;;;;;;15.30;71.46;97501.88;4987421;28;19926;-83
2022/09/25 10:58:28;;;;;;;;;;;;;;;15.40;72.42;97503.28;4981790;28;19956;-81
2022/09/25 11:00:58;;;;;;;;;;;;;;;15.45;72.66;97500.31;4974770;28;19926;-82
2022/09/25 11:03:29;;;;;;;;;;;;;;;15.49;71.85;97497.63;4995085;28;19926;-80
2022/09/25 11:05:57;;;;;;;;;;;;;;;15.46;71.14;97493.66;4991595;28;20345;-83
2022/09/25 11:08:25;;;;;;;;;;;;;;;15.43;71.09;97499.84;4992208;28;19955;-81
2022/09/25 11:10:56;;;;;;;;;;;;;;;15.35;71.19;97492.59;4986542;28;19932;-80
2022/09/25 11:13:24;;;;;;;;;;;;;;;15.42;70.97;97488.09;4978534;28;19968;-84
2022/09/25 11:15:54;;;;;;;;;;;;;;;15.51;71.51;97487.13;4991900;28;20339;-83
2022/09/25 11:18:35;;;;;;;;;;;;;;;15.57;71.03;97488.47;4991753;28;20366;-81
2022/09/25 11:21:04;;;;;;;;;;;;;;;15.73;71.12;97483.00;4973741;28;19957;-83
2022/09/25 11:23:33;;;;;;;;;;;;;;;15.87;70.51;97486.06;4992758;28;19932;-82
2022/09/25 11:26:05;;;;;;;;;;;;;;;15.90;69.61;97485.34;4992590;28;20432;-81
2022/09/25 11:28:37;;;;;;;;;;;;;;;16.05;68.71;97476.31;4985008;28;20473;-82
2022/09/25 11:31:21;;;;;;;;;;;;;;;16.06;67.78;97483.38;4993049;28;19926;-82
2022/09/25 11:33:53;;;;;;;;;;;;;;;16.07;68.44;97484.16;4972564;28;19929;-83
2022/09/25 11:36:22;;;;;;;;;;;;;;;15.98;67.35;97487.13;4990525;28;20309;-80
2022/09/25 11:42:04;;;;;;;;;;;;;;;15.96;67.74;97471.00;4990912;28;19926;-81
2022/09/25 11:44:34;;;;;;;;;;;;;;;15.97;67.34;97477.28;4982960;28;20304;-82
2022/09/25 11:47:04;;;;;;;;;;;;;;;16.01;67.61;97480.13;4976407;28;20435;-80
2022/09/25 11:49:35;;;;;;;;;;;;;;;15.78;66.32;97467.09;4984616;28;19932;-82
2022/09/25 11:52:27;;;;;;;;;;;;;;;15.83;66.43;97476.97;4991792;28;19936;-82
2022/09/25 11:55:13;;;;;;;;;;;;;;;15.92;67.98;97483.03;4986972;28;19950;-82
2022/09/25 11:57:44;;;;;;;;;;;;;;;15.92;65.75;97500.25;4987543;28;20372;-80
2022/09/25 12:00:14;;;;;;;;;;;;;;;15.46;69.04;97499.94;4973609;28;19926;-83
2022/09/25 12:02:53;;;;;;;;;;;;;;;15.07;71.76;97498.91;4973384;28;20395;-81
2022/09/25 12:05:27;;;;;;;;;;;;;;;14.66;72.54;97492.75;4982136;28;19926;-81
2022/09/25 12:08:08;;;;;;;;;;;;;;;14.54;73.51;97492.78;4986155;28;20464;-81
2022/09/25 12:10:39;;;;;;;;;;;;;;;14.25;73.91;97490.34;4989600;28;19925;-82
2022/09/25 12:13:19;;;;;;;;;;;;;;;14.05;74.85;97492.88;4973304;28;19965;-80
2022/09/25 12:15:51;;;;;;;;;;;;;;;14.32;73.12;97493.28;4975369;28;20099;-84
2022/09/25 12:18:21;;;;;;;;;;;;;;;14.21;72.81;97489.44;4985955;28;19944;-83
2022/09/25 12:20:52;;;;;;;;;;;;;;;14.00;73.51;97484.91;4992104;28;19933;-82
2022/09/25 12:23:24;;;;;;;;;;;;;;;14.18;73.57;97481.94;4990463;28;19957;-79
2022/09/25 12:26:01;;;;;;;;;;;;;;;14.06;74.12;97478.09;4975145;28;19937;-79
2022/09/25 12:28:32;;;;;;;;;;;;;;;14.16;74.07;97471.34;4972959;28;19926;-80
2022/09/25 12:31:03;;;;;;;;;;;;;;;14.23;74.55;97470.78;4987403;28;19926;-82
2022/09/25 12:36:34;;;;;;;;;;;;;;;14.15;76.30;97478.75;4989152;28;19976;-80
2022/09/25 12:39:07;;;;;;;;;;;;;;;13.95;76.93;97474.22;4989588;28;19925;-83
2022/09/25 12:42:05;;;;;;;;;;;;;;;14.11;76.48;97472.41;4990667;28;19926;-80
2022/09/25 12:44:36;;;;;;;;;;;;;;;14.11;76.25;97469.66;4975792;28;19933;-81
2022/09/25 12:47:06;;;;;;;;;;;;;;;14.23;76.43;97481.69;4983487;28;19930;-81
2022/09/25 12:49:35;;;;;;;;;;;;;;;14.39;75.74;97485.28;4990652;28;19976;-82
2022/09/25 12:52:08;;;;;;;;;;;;;;;14.39;76.07;97477.09;4974973;28;19925;-81
2022/09/25 12:55:03;;;;;;;;;;;;;;;14.54;75.46;97476.41;4990574;28;19926;-79
2022/09/25 12:57:33;;;;;;;;;;;;;;;14.60;75.41;97466.00;4992551;28;19925;-82
2022/09/25 13:00:04;;;;;;;;;;;;;;;14.70;76.20;97472.88;4990833;28;19953;-79
2022/09/25 13:02:35;;;;;;;;;;;;;;;14.83;74.68;97468.97;4972393;28;19926;-82
2022/09/25 13:08:05;;;;;;;;;;;;;;;14.64;75.18;97464.94;4982570;28;20013;-93
2022/09/25 13:10:34;;;;;;;;;;;;;;;14.61;75.40;97465.66;4983997;28;19949;-93
2022/09/25 13:13:04;;;;;;;;;;;;;;;14.70;75.14;97457.31;4983463;28;19976;-93
2022/09/25 13:15:38;;;;;;;;;;;;;;;14.65;75.77;97452.88;4976319;28;20057;-93
2022/09/25 13:18:16;;;;;;;;;;;;;;;14.67;75.66;97464.25;4988951;28;20040;-93
2022/09/25 13:20:48;;;;;;;;;;;;;;;14.73;75.50;97462.06;4992356;28;19988;-93
2022/09/25 13:23:23;;;;;;;;;;;;;;;14.52;74.96;97454.06;4978273;28;19929;-92
2022/09/25 13:25:58;;;;;;;;;;;;;;;14.41;76.14;97461.13;4974885;28;19933;-93
2022/09/25 13:28:28;;;;;;;;;;;;;;;14.23;77.28;97448.91;4973320;28;19994;-93
2022/09/25 13:31:05;;;;;;;;;;;;;;;14.11;78.11;97453.28;4979558;28;19930;-93
2022/09/25 13:33:41;;;;;;;;;;;;;;;14.01;78.95;97458.38;4971678;28;19926;-93
2022/09/25 13:36:11;;;;;;;;;;;;;;;13.93;79.11;97453.88;4976335;28;19930;-92
2022/09/25 13:41:29;;;;;;;;;;;;;;;13.74;80.97;97479.00;4978406;28;20051;-93
2022/09/25 13:44:30;;;;;;;;;;;;;;;13.76;82.24;97484.94;4991696;28;19932;-94
2022/09/25 13:47:15;;;;;;;;;;;;;;;13.44;83.19;97478.47;4953170;29;19938;-93
2022/09/25 13:49:46;;;;;;;;;;;;;;;13.11;85.58;97468.41;4969773;28;20020;-93
2022/09/25 13:52:40;;;;;;;;;;;;;;;13.23;86.67;97468.44;4985413;28;19933;-92
2022/09/25 13:55:19;;;;;;;;;;;;;;;13.25;86.65;97468.88;4977146;28;19936;-93
2022/09/25 13:58:20;;;;;;;;;;;;;;;12.91;87.05;97467.31;4971476;28;19926;-93
2022/09/25 14:00:54;;;;;;;;;;;;;;;12.74;83.42;97456.59;4971027;28;19963;-92
2022/09/25 14:03:30;;;;;;;;;;;;;;;12.77;84.37;97451.25;4976112;28;19926;-92
2022/09/25 14:06:01;;;;;;;;;;;;;;;12.93;84.27;97451.41;4973116;28;19937;-93
2022/09/25 14:08:33;;;;;;;;;;;;;;;12.99;85.52;97447.34;4983351;28;19997;-93
2022/09/25 14:11:30;;;;;;;;;;;;;;;13.11;86.66;97450.09;4967899;28;20315;-92
2022/09/25 14:13:59;;;;;;;;;;;;;;;13.16;86.80;97459.19;4981173;28;19930;-93
2022/09/25 14:16:28;;;;;;;;;;;;;;;13.14;86.12;97453.28;4972979;28;19926;-94
2022/09/25 14:18:57;;;;;;;;;;;;;;;12.99;84.42;97455.50;4972504;28;19934;-92
2022/09/25 14:21:27;;;;;;;;;;;;;;;13.06;84.63;97450.31;4969940;28;19926;-93
2022/09/25 14:23:57;;;;;;;;;;;;;;;13.09;85.02;97457.81;4983441;28;19930;-93
2022/09/25 14:26:26;;;;;;;;;;;;;;;13.15;84.96;97455.66;4984883;28;20202;-93
2022/09/25 14:28:56;;;;;;;;;;;;;;;13.20;85.88;97452.72;4978107;28;19933;-92
2022/09/25 14:31:38;;;;;;;;;;;;;;;13.22;86.30;97455.16;4978524;28;20001;-92